»·PEaware :: N912D KAJO-KVCV

N912D :: KAJO-KVCV

FLIGHT INFORMATION

Flight Status: Arrived
Operator: Privately registered:
United States
More flights under this callsign
Pilot: Andrew D. (32435)
Aircraft: SOCATA TBM-900
(TBM9)
More flights by this aircraft type
Origin: KAJO Corona Mun
United States
Destination: KVCV Socal Logistics
United States
More flights between these airports :: More routes between these airports
Route: PDZ V442 APLES
File this flight plan on PilotEdge
Remarks:
Altitude:
(Current/Filed)
9,000ft
Speed:
(Current/Filed)
250kts
Departed: 24-Nov-20 08:55 AM
Arrived: 24-Nov-20 09:40 AM
Distance/Time
Traveled:
43nm/0:45
Distance/Time
To Go:
Arrived

Flight Plot

Page will automatically refresh every two minutes.


Map Options




Map Legend


Flown Route
Filed Route
Departure Airport
Arrival Airport
Navaid (VOR, NDB)
Fix

Horizontal Profiles

Position Reports

Time Latitude Longitude Heading Altitude Ground
Speed
24-Nov-20 08:48 33.896886 -117.606261 268 536ft 0kts
24-Nov-20 08:49 33.896886 -117.606261 268 536ft 0kts
24-Nov-20 08:50 33.896886 -117.606261 268 536ft 0kts
24-Nov-20 08:51 33.896886 -117.606261 268 536ft 0kts
24-Nov-20 08:52 33.897196 -117.607260 271 536ft 0kts
24-Nov-20 08:53 33.897196 -117.607260 271 536ft 0kts
24-Nov-20 08:54 33.897288 -117.607555 319 536ft 9kts
24-Nov-20 08:55 33.902787 -117.583500 34 1569ft 116kts
24-Nov-20 08:56 33.915757 -117.547354 77 2572ft 130kts
24-Nov-20 08:57 33.933016 -117.507185 41 3119ft 145kts
24-Nov-20 08:57 33.960001 -117.506917 291 3792ft 148kts
24-Nov-20 08:59 33.923886 -117.526042 190 4885ft 154kts
24-Nov-20 08:59 33.921470 -117.558320 341 5617ft 159kts
24-Nov-20 09:00 33.960355 -117.529299 41 6020ft 187kts
24-Nov-20 09:02 33.960488 -117.478816 186 6006ft 198kts
24-Nov-20 09:02 33.928683 -117.516877 222 6012ft 199kts
24-Nov-20 09:03 33.921315 -117.567261 345 6352ft 175kts
24-Nov-20 09:04 33.957654 -117.540633 52 7229ft 153kts
24-Nov-20 09:05 33.984127 -117.495254 48 8233ft 176kts
24-Nov-20 09:06 34.025258 -117.462774 25 9019ft 196kts
24-Nov-20 09:07 34.079444 -117.430319 25 9015ft 232kts
24-Nov-20 09:08 34.138444 -117.394796 25 9025ft 239kts
24-Nov-20 09:09 34.198248 -117.358635 25 9041ft 241kts
24-Nov-20 09:10 34.257907 -117.322254 25 9055ft 240kts
24-Nov-20 09:11 34.318604 -117.288196 23 9055ft 240kts
24-Nov-20 09:12 34.378880 -117.253225 24 9054ft 231kts
24-Nov-20 09:13 34.429765 -117.221171 26 9060ft 203kts
24-Nov-20 09:14 34.482110 -117.187954 25 9056ft 215kts
24-Nov-20 09:15 34.535162 -117.154736 25 9050ft 208kts
24-Nov-20 09:16 34.591313 -117.140219 1 8732ft 209kts
24-Nov-20 09:17 34.649026 -117.153298 341 8016ft 206kts
24-Nov-20 09:18 34.701201 -117.182258 331 7192ft 202kts
24-Nov-20 09:19 34.746473 -117.223573 321 6576ft 195kts
24-Nov-20 09:20 34.774821 -117.277443 296 6579ft 186kts
24-Nov-20 09:21 34.791924 -117.337195 286 6419ft 190kts
24-Nov-20 09:22 34.763007 -117.374416 172 5406ft 193kts
24-Nov-20 09:23 34.719790 -117.378715 185 4612ft 137kts
24-Nov-20 09:24 34.684036 -117.382935 185 4268ft 122kts
24-Nov-20 09:25 34.650752 -117.385671 183 3354ft 117kts
24-Nov-20 09:26 34.619537 -117.386983 182 3229ft 114kts
24-Nov-20 09:27 34.594314 -117.407724 280 4355ft 144kts
24-Nov-20 09:28 34.605954 -117.460237 283 5300ft 194kts
24-Nov-20 09:29 34.619060 -117.528463 286 5989ft 221kts
24-Nov-20 09:30 34.634526 -117.601827 286 5978ft 214kts
24-Nov-20 09:31 34.666561 -117.643026 2 5745ft 176kts
24-Nov-20 09:32 34.690130 -117.602440 114 4753ft 187kts
24-Nov-20 09:33 34.671057 -117.546521 112 4298ft 148kts
24-Nov-20 09:34 34.658582 -117.499095 101 4283ft 147kts
24-Nov-20 09:35 34.650835 -117.450072 100 4267ft 148kts
24-Nov-20 09:36 34.642419 -117.399638 104 3912ft 152kts
24-Nov-20 09:37 34.621063 -117.368000 131 3274ft 96kts
24-Nov-20 09:38 34.601104 -117.365812 225 2889ft 85kts
24-Nov-20 09:39 34.593810 -117.372724 182 2859ft 0kts
24-Nov-20 09:40 34.592009 -117.373837 223 2863ft 18kts
24-Nov-20 09:41 34.588103 -117.375961 245 2870ft 11kts
24-Nov-20 09:42 34.588213 -117.376433 313 2870ft 0kts
24-Nov-20 09:43 34.588213 -117.376433 313 2870ft 0kts
24-Nov-20 09:44 34.588213 -117.376433 313 2870ft 0kts
24-Nov-20 09:45 34.588213 -117.376433 313 2870ft 0kts
24-Nov-20 09:46 34.588213 -117.376433 313 2870ft 0kts
24-Nov-20 09:47 34.588213 -117.376433 313 2870ft 0kts
24-Nov-20 09:48 34.588213 -117.376433 313 2870ft 0kts
24-Nov-20 09:49 34.588213 -117.376433 313 2870ft 0kts
24-Nov-20 09:50 34.588213 -117.376433 313 2870ft 0kts
24-Nov-20 09:51 34.588213 -117.376433 313 2870ft 0kts
24-Nov-20 09:52 34.588213 -117.376433 313 2870ft 0kts
24-Nov-20 09:53 34.588213 -117.376433 313 2870ft 0kts

Navigation Log

Ident Type
Flight plan parsing failed, navigation log unavailable